sensor_id;sensor_type;location;lat;lon;timestamp;P1;durP1;ratioP1;P2;durP2;ratioP2
4638;SDS011;2332;38.646;-9.154;2023-08-17T00:01:32;4.37;;;1.70;;
4638;SDS011;2332;38.646;-9.154;2023-08-17T00:04:01;8.80;;;2.10;;
4638;SDS011;2332;38.646;-9.154;2023-08-17T00:06:26;10.70;;;2.07;;
4638;SDS011;2332;38.646;-9.154;2023-08-17T00:08:51;6.40;;;1.50;;
4638;SDS011;2332;38.646;-9.154;2023-08-17T00:11:17;6.23;;;2.27;;
4638;SDS011;2332;38.646;-9.154;2023-08-17T00:13:42;3.37;;;1.40;;
4638;SDS011;2332;38.646;-9.154;2023-08-17T00:16:07;6.87;;;1.70;;
4638;SDS011;2332;38.646;-9.154;2023-08-17T00:18:33;6.93;;;2.37;;
4638;SDS011;2332;38.646;-9.154;2023-08-17T00:20:58;5.30;;;1.60;;
4638;SDS011;2332;38.646;-9.154;2023-08-17T00:23:24;4.10;;;1.67;;
4638;SDS011;2332;38.646;-9.154;2023-08-17T00:25:49;9.00;;;2.20;;
4638;SDS011;2332;38.646;-9.154;2023-08-17T00:28:14;9.80;;;2.23;;
4638;SDS011;2332;38.646;-9.154;2023-08-17T00:30:40;4.40;;;1.70;;
4638;SDS011;2332;38.646;-9.154;2023-08-17T00:33:05;9.10;;;2.80;;
4638;SDS011;2332;38.646;-9.154;2023-08-17T00:35:31;5.50;;;2.00;;
4638;SDS011;2332;38.646;-9.154;2023-08-17T00:37:56;5.03;;;1.60;;
4638;SDS011;2332;38.646;-9.154;2023-08-17T00:40:22;7.80;;;1.80;;
4638;SDS011;2332;38.646;-9.154;2023-08-17T00:42:47;3.90;;;1.53;;
4638;SDS011;2332;38.646;-9.154;2023-08-17T00:45:15;6.33;;;2.07;;
4638;SDS011;2332;38.646;-9.154;2023-08-17T00:47:43;3.10;;;1.60;;
4638;SDS011;2332;38.646;-9.154;2023-08-17T00:50:09;7.70;;;1.57;;
4638;SDS011;2332;38.646;-9.154;2023-08-17T00:52:35;12.33;;;2.13;;
4638;SDS011;2332;38.646;-9.154;2023-08-17T00:55:00;8.07;;;1.70;;
4638;SDS011;2332;38.646;-9.154;2023-08-17T00:57:26;2.67;;;1.50;;
4638;SDS011;2332;38.646;-9.154;2023-08-17T00:59:52;8.13;;;1.70;;
4638;SDS011;2332;38.646;-9.154;2023-08-17T01:02:18;7.73;;;2.10;;
4638;SDS011;2332;38.646;-9.154;2023-08-17T01:04:46;7.80;;;1.83;;
4638;SDS011;2332;38.646;-9.154;2023-08-17T01:07:11;5.50;;;2.00;;
4638;SDS011;2332;38.646;-9.154;2023-08-17T01:09:37;4.60;;;1.83;;
4638;SDS011;2332;38.646;-9.154;2023-08-17T01:12:12;6.67;;;1.70;;
4638;SDS011;2332;38.646;-9.154;2023-08-17T01:14:46;5.27;;;1.90;;
4638;SDS011;2332;38.646;-9.154;2023-08-17T01:17:15;7.33;;;2.13;;
4638;SDS011;2332;38.646;-9.154;2023-08-17T01:19:42;3.17;;;1.77;;
4638;SDS011;2332;38.646;-9.154;2023-08-17T01:22:10;5.67;;;2.50;;
4638;SDS011;2332;38.646;-9.154;2023-08-17T01:24:36;4.83;;;1.90;;
4638;SDS011;2332;38.646;-9.154;2023-08-17T01:27:01;9.80;;;2.37;;
4638;SDS011;2332;38.646;-9.154;2023-08-17T01:29:26;4.97;;;1.60;;
4638;SDS011;2332;38.646;-9.154;2023-08-17T01:34:18;2.70;;;1.57;;
4638;SDS011;2332;38.646;-9.154;2023-08-17T01:36:47;7.80;;;1.90;;
4638;SDS011;2332;38.646;-9.154;2023-08-17T01:39:15;4.07;;;1.53;;
4638;SDS011;2332;38.646;-9.154;2023-08-17T01:41:42;5.30;;;1.90;;
4638;SDS011;2332;38.646;-9.154;2023-08-17T01:44:08;4.30;;;1.80;;
4638;SDS011;2332;38.646;-9.154;2023-08-17T01:46:33;10.67;;;1.80;;
4638;SDS011;2332;38.646;-9.154;2023-08-17T01:48:59;6.10;;;1.90;;
4638;SDS011;2332;38.646;-9.154;2023-08-17T01:51:24;5.13;;;2.10;;
4638;SDS011;2332;38.646;-9.154;2023-08-17T01:53:50;6.90;;;2.30;;
4638;SDS011;2332;38.646;-9.154;2023-08-17T01:56:15;2.37;;;1.70;;
4638;SDS011;2332;38.646;-9.154;2023-08-17T01:58:41;6.67;;;1.90;;
4638;SDS011;2332;38.646;-9.154;2023-08-17T02:01:06;4.10;;;1.80;;
4638;SDS011;2332;38.646;-9.154;2023-08-17T02:03:32;4.57;;;2.10;;
4638;SDS011;2332;38.646;-9.154;2023-08-17T02:05:57;5.53;;;1.70;;
4638;SDS011;2332;38.646;-9.154;2023-08-17T02:08:23;4.00;;;2.20;;
4638;SDS011;2332;38.646;-9.154;2023-08-17T02:10:48;6.43;;;1.90;;
4638;SDS011;2332;38.646;-9.154;2023-08-17T02:13:14;5.47;;;1.73;;
4638;SDS011;2332;38.646;-9.154;2023-08-17T02:15:39;3.63;;;1.67;;
4638;SDS011;2332;38.646;-9.154;2023-08-17T02:18:05;3.87;;;1.67;;
4638;SDS011;2332;38.646;-9.154;2023-08-17T02:20:30;5.80;;;2.30;;
4638;SDS011;2332;38.646;-9.154;2023-08-17T02:22:56;4.00;;;1.90;;
4638;SDS011;2332;38.646;-9.154;2023-08-17T02:25:21;1.83;;;1.60;;
4638;SDS011;2332;38.646;-9.154;2023-08-17T02:27:46;2.17;;;1.67;;
4638;SDS011;2332;38.646;-9.154;2023-08-17T02:30:12;4.43;;;1.73;;
4638;SDS011;2332;38.646;-9.154;2023-08-17T02:32:38;10.27;;;1.70;;
4638;SDS011;2332;38.646;-9.154;2023-08-17T02:35:04;2.80;;;1.80;;
4638;SDS011;2332;38.646;-9.154;2023-08-17T02:37:29;2.73;;;1.70;;
4638;SDS011;2332;38.646;-9.154;2023-08-17T02:39:55;2.33;;;1.70;;
4638;SDS011;2332;38.646;-9.154;2023-08-17T02:42:20;3.67;;;1.70;;
4638;SDS011;2332;38.646;-9.154;2023-08-17T02:44:45;5.77;;;1.63;;
4638;SDS011;2332;38.646;-9.154;2023-08-17T02:47:11;3.33;;;1.63;;
4638;SDS011;2332;38.646;-9.154;2023-08-17T02:49:36;3.27;;;1.73;;
4638;SDS011;2332;38.646;-9.154;2023-08-17T02:52:01;6.37;;;2.07;;
4638;SDS011;2332;38.646;-9.154;2023-08-17T02:54:27;5.40;;;1.97;;
4638;SDS011;2332;38.646;-9.154;2023-08-17T02:56:52;5.37;;;1.80;;
4638;SDS011;2332;38.646;-9.154;2023-08-17T02:59:18;9.00;;;2.00;;
4638;SDS011;2332;38.646;-9.154;2023-08-17T03:01:44;4.30;;;2.00;;
4638;SDS011;2332;38.646;-9.154;2023-08-17T03:04:10;3.87;;;1.93;;
4638;SDS011;2332;38.646;-9.154;2023-08-17T03:06:35;3.50;;;1.53;;
4638;SDS011;2332;38.646;-9.154;2023-08-17T03:09:01;5.17;;;1.70;;
4638;SDS011;2332;38.646;-9.154;2023-08-17T03:11:27;6.40;;;1.97;;
4638;SDS011;2332;38.646;-9.154;2023-08-17T03:13:52;7.10;;;1.67;;
4638;SDS011;2332;38.646;-9.154;2023-08-17T03:16:20;3.60;;;2.00;;
4638;SDS011;2332;38.646;-9.154;2023-08-17T03:18:46;3.23;;;1.70;;
4638;SDS011;2332;38.646;-9.154;2023-08-17T03:21:13;4.43;;;1.50;;
4638;SDS011;2332;38.646;-9.154;2023-08-17T03:23:38;10.67;;;2.47;;
4638;SDS011;2332;38.646;-9.154;2023-08-17T03:26:04;10.40;;;2.73;;
4638;SDS011;2332;38.646;-9.154;2023-08-17T03:28:29;4.43;;;2.00;;
4638;SDS011;2332;38.646;-9.154;2023-08-17T03:30:55;7.87;;;2.27;;
4638;SDS011;2332;38.646;-9.154;2023-08-17T03:33:21;7.40;;;1.80;;
4638;SDS011;2332;38.646;-9.154;2023-08-17T03:35:46;4.00;;;1.97;;
4638;SDS011;2332;38.646;-9.154;2023-08-17T03:38:11;8.20;;;2.40;;
4638;SDS011;2332;38.646;-9.154;2023-08-17T03:40:37;5.57;;;2.30;;
4638;SDS011;2332;38.646;-9.154;2023-08-17T03:43:02;9.17;;;2.30;;
4638;SDS011;2332;38.646;-9.154;2023-08-17T03:45:28;4.27;;;2.30;;
4638;SDS011;2332;38.646;-9.154;2023-08-17T03:47:54;3.73;;;2.20;;
4638;SDS011;2332;38.646;-9.154;2023-08-17T03:50:19;8.17;;;2.23;;
4638;SDS011;2332;38.646;-9.154;2023-08-17T03:52:44;9.10;;;2.20;;
4638;SDS011;2332;38.646;-9.154;2023-08-17T03:55:10;9.47;;;2.43;;
4638;SDS011;2332;38.646;-9.154;2023-08-17T03:57:35;4.03;;;2.60;;
4638;SDS011;2332;38.646;-9.154;2023-08-17T04:00:00;3.70;;;2.50;;
4638;SDS011;2332;38.646;-9.154;2023-08-17T04:02:26;3.63;;;1.90;;
4638;SDS011;2332;38.646;-9.154;2023-08-17T04:04:51;2.53;;;2.33;;
4638;SDS011;2332;38.646;-9.154;2023-08-17T04:07:20;6.10;;;2.27;;
4638;SDS011;2332;38.646;-9.154;2023-08-17T04:09:45;4.03;;;1.93;;
4638;SDS011;2332;38.646;-9.154;2023-08-17T04:12:11;7.53;;;2.30;;
4638;SDS011;2332;38.646;-9.154;2023-08-17T04:14:36;3.23;;;2.30;;
4638;SDS011;2332;38.646;-9.154;2023-08-17T04:17:01;4.87;;;2.10;;
4638;SDS011;2332;38.646;-9.154;2023-08-17T04:19:27;3.70;;;2.60;;
4638;SDS011;2332;38.646;-9.154;2023-08-17T04:22:01;4.87;;;2.40;;
4638;SDS011;2332;38.646;-9.154;2023-08-17T04:24:27;4.43;;;2.20;;
4638;SDS011;2332;38.646;-9.154;2023-08-17T04:26:52;5.40;;;2.20;;
4638;SDS011;2332;38.646;-9.154;2023-08-17T04:29:18;5.60;;;2.70;;
4638;SDS011;2332;38.646;-9.154;2023-08-17T04:31:43;2.73;;;1.97;;
4638;SDS011;2332;38.646;-9.154;2023-08-17T04:34:08;3.70;;;2.10;;
4638;SDS011;2332;38.646;-9.154;2023-08-17T04:36:34;3.70;;;2.10;;
4638;SDS011;2332;38.646;-9.154;2023-08-17T04:38:59;4.63;;;2.40;;
4638;SDS011;2332;38.646;-9.154;2023-08-17T04:41:24;7.97;;;2.40;;
4638;SDS011;2332;38.646;-9.154;2023-08-17T04:43:50;10.20;;;3.17;;
4638;SDS011;2332;38.646;-9.154;2023-08-17T04:46:15;6.53;;;2.60;;
4638;SDS011;2332;38.646;-9.154;2023-08-17T04:48:40;5.93;;;2.93;;
4638;SDS011;2332;38.646;-9.154;2023-08-17T04:51:06;6.47;;;3.07;;
4638;SDS011;2332;38.646;-9.154;2023-08-17T04:53:31;6.87;;;2.97;;
4638;SDS011;2332;38.646;-9.154;2023-08-17T04:55:58;7.17;;;2.80;;
4638;SDS011;2332;38.646;-9.154;2023-08-17T04:58:23;11.13;;;3.40;;
4638;SDS011;2332;38.646;-9.154;2023-08-17T05:00:49;3.63;;;2.63;;
4638;SDS011;2332;38.646;-9.154;2023-08-17T05:03:14;3.43;;;2.70;;
4638;SDS011;2332;38.646;-9.154;2023-08-17T05:05:39;3.70;;;2.60;;
4638;SDS011;2332;38.646;-9.154;2023-08-17T05:08:07;9.50;;;3.40;;
4638;SDS011;2332;38.646;-9.154;2023-08-17T05:10:33;5.83;;;3.10;;
4638;SDS011;2332;38.646;-9.154;2023-08-17T05:12:59;10.17;;;3.17;;
4638;SDS011;2332;38.646;-9.154;2023-08-17T05:15:24;3.37;;;2.40;;
4638;SDS011;2332;38.646;-9.154;2023-08-17T05:17:49;4.33;;;2.57;;
4638;SDS011;2332;38.646;-9.154;2023-08-17T05:20:15;8.23;;;2.80;;
4638;SDS011;2332;38.646;-9.154;2023-08-17T05:22:40;7.53;;;3.27;;
4638;SDS011;2332;38.646;-9.154;2023-08-17T05:25:06;6.30;;;3.20;;
4638;SDS011;2332;38.646;-9.154;2023-08-17T05:27:31;8.23;;;3.20;;
4638;SDS011;2332;38.646;-9.154;2023-08-17T05:29:57;7.33;;;3.97;;
4638;SDS011;2332;38.646;-9.154;2023-08-17T05:32:22;10.10;;;3.70;;
4638;SDS011;2332;38.646;-9.154;2023-08-17T05:34:47;11.53;;;3.23;;
4638;SDS011;2332;38.646;-9.154;2023-08-17T05:37:13;5.97;;;3.57;;
4638;SDS011;2332;38.646;-9.154;2023-08-17T05:39:40;6.20;;;4.00;;
4638;SDS011;2332;38.646;-9.154;2023-08-17T05:42:06;5.87;;;3.20;;
4638;SDS011;2332;38.646;-9.154;2023-08-17T05:44:31;4.07;;;3.67;;
4638;SDS011;2332;38.646;-9.154;2023-08-17T05:46:57;11.50;;;3.60;;
4638;SDS011;2332;38.646;-9.154;2023-08-17T05:49:22;10.33;;;3.50;;
4638;SDS011;2332;38.646;-9.154;2023-08-17T05:51:47;8.87;;;4.53;;
4638;SDS011;2332;38.646;-9.154;2023-08-17T05:54:13;8.47;;;3.90;;
4638;SDS011;2332;38.646;-9.154;2023-08-17T05:56:38;7.90;;;3.97;;
4638;SDS011;2332;38.646;-9.154;2023-08-17T05:59:09;8.90;;;4.00;;
4638;SDS011;2332;38.646;-9.154;2023-08-17T06:01:35;14.97;;;5.60;;
4638;SDS011;2332;38.646;-9.154;2023-08-17T06:04:01;6.10;;;3.73;;
4638;SDS011;2332;38.646;-9.154;2023-08-17T06:06:26;5.37;;;3.70;;
4638;SDS011;2332;38.646;-9.154;2023-08-17T06:08:51;5.63;;;3.27;;
4638;SDS011;2332;38.646;-9.154;2023-08-17T06:11:17;5.20;;;2.60;;
4638;SDS011;2332;38.646;-9.154;2023-08-17T06:13:42;5.17;;;3.40;;
4638;SDS011;2332;38.646;-9.154;2023-08-17T06:16:08;8.30;;;2.90;;
4638;SDS011;2332;38.646;-9.154;2023-08-17T06:18:33;13.17;;;2.77;;
4638;SDS011;2332;38.646;-9.154;2023-08-17T06:20:59;5.63;;;2.73;;
4638;SDS011;2332;38.646;-9.154;2023-08-17T06:23:24;3.93;;;2.40;;
4638;SDS011;2332;38.646;-9.154;2023-08-17T06:25:50;9.80;;;2.67;;
4638;SDS011;2332;38.646;-9.154;2023-08-17T06:28:15;5.43;;;2.50;;
4638;SDS011;2332;38.646;-9.154;2023-08-17T06:30:41;2.57;;;2.33;;
4638;SDS011;2332;38.646;-9.154;2023-08-17T06:33:06;5.93;;;2.67;;
4638;SDS011;2332;38.646;-9.154;2023-08-17T06:35:32;8.77;;;2.70;;
4638;SDS011;2332;38.646;-9.154;2023-08-17T06:37:57;5.57;;;2.70;;
4638;SDS011;2332;38.646;-9.154;2023-08-17T06:40:23;3.93;;;2.37;;
4638;SDS011;2332;38.646;-9.154;2023-08-17T06:42:49;3.00;;;2.40;;
4638;SDS011;2332;38.646;-9.154;2023-08-17T06:45:14;4.80;;;2.10;;
4638;SDS011;2332;38.646;-9.154;2023-08-17T06:47:43;5.03;;;2.33;;
4638;SDS011;2332;38.646;-9.154;2023-08-17T06:50:10;6.23;;;2.10;;
4638;SDS011;2332;38.646;-9.154;2023-08-17T06:52:35;6.03;;;2.20;;
4638;SDS011;2332;38.646;-9.154;2023-08-17T06:55:01;4.43;;;2.17;;
4638;SDS011;2332;38.646;-9.154;2023-08-17T06:57:26;6.43;;;2.13;;
4638;SDS011;2332;38.646;-9.154;2023-08-17T06:59:52;5.83;;;2.27;;
4638;SDS011;2332;38.646;-9.154;2023-08-17T07:02:17;4.60;;;2.70;;
4638;SDS011;2332;38.646;-9.154;2023-08-17T07:04:42;4.13;;;2.20;;
4638;SDS011;2332;38.646;-9.154;2023-08-17T07:07:08;6.27;;;2.17;;
4638;SDS011;2332;38.646;-9.154;2023-08-17T07:09:33;6.77;;;2.20;;
4638;SDS011;2332;38.646;-9.154;2023-08-17T07:11:59;4.73;;;2.27;;
4638;SDS011;2332;38.646;-9.154;2023-08-17T07:14:24;6.27;;;2.87;;
4638;SDS011;2332;38.646;-9.154;2023-08-17T07:16:50;5.43;;;1.90;;
4638;SDS011;2332;38.646;-9.154;2023-08-17T07:19:15;6.27;;;2.10;;
4638;SDS011;2332;38.646;-9.154;2023-08-17T07:21:41;9.93;;;1.80;;
4638;SDS011;2332;38.646;-9.154;2023-08-17T07:24:12;3.10;;;1.63;;
4638;SDS011;2332;38.646;-9.154;2023-08-17T07:26:38;6.83;;;2.47;;
4638;SDS011;2332;38.646;-9.154;2023-08-17T07:29:04;3.70;;;1.97;;
4638;SDS011;2332;38.646;-9.154;2023-08-17T07:31:29;8.13;;;2.13;;
4638;SDS011;2332;38.646;-9.154;2023-08-17T07:33:54;5.80;;;2.27;;
4638;SDS011;2332;38.646;-9.154;2023-08-17T07:36:20;4.03;;;2.20;;
4638;SDS011;2332;38.646;-9.154;2023-08-17T07:38:45;9.33;;;2.73;;
4638;SDS011;2332;38.646;-9.154;2023-08-17T07:41:11;2.03;;;1.40;;
4638;SDS011;2332;38.646;-9.154;2023-08-17T07:43:36;5.03;;;1.90;;
4638;SDS011;2332;38.646;-9.154;2023-08-17T07:46:01;5.87;;;1.60;;
4638;SDS011;2332;38.646;-9.154;2023-08-17T07:48:27;1.67;;;1.37;;
4638;SDS011;2332;38.646;-9.154;2023-08-17T07:50:52;4.87;;;2.10;;
4638;SDS011;2332;38.646;-9.154;2023-08-17T07:53:18;4.07;;;1.47;;
4638;SDS011;2332;38.646;-9.154;2023-08-17T07:55:44;4.80;;;1.50;;
4638;SDS011;2332;38.646;-9.154;2023-08-17T07:58:09;4.10;;;1.80;;
4638;SDS011;2332;38.646;-9.154;2023-08-17T08:00:35;3.80;;;1.40;;
4638;SDS011;2332;38.646;-9.154;2023-08-17T08:03:00;2.80;;;1.50;;
4638;SDS011;2332;38.646;-9.154;2023-08-17T08:05:25;6.10;;;1.93;;
4638;SDS011;2332;38.646;-9.154;2023-08-17T08:07:51;2.30;;;1.30;;
4638;SDS011;2332;38.646;-9.154;2023-08-17T08:10:16;2.67;;;1.40;;
4638;SDS011;2332;38.646;-9.154;2023-08-17T08:12:42;16.20;;;2.10;;
4638;SDS011;2332;38.646;-9.154;2023-08-17T08:15:07;4.70;;;1.70;;
4638;SDS011;2332;38.646;-9.154;2023-08-17T08:17:33;4.20;;;2.00;;
4638;SDS011;2332;38.646;-9.154;2023-08-17T08:19:59;2.40;;;1.57;;
4638;SDS011;2332;38.646;-9.154;2023-08-17T08:22:26;4.30;;;1.60;;
4638;SDS011;2332;38.646;-9.154;2023-08-17T08:24:52;3.40;;;1.60;;
4638;SDS011;2332;38.646;-9.154;2023-08-17T08:27:17;5.80;;;1.53;;
4638;SDS011;2332;38.646;-9.154;2023-08-17T08:29:42;2.90;;;1.50;;
4638;SDS011;2332;38.646;-9.154;2023-08-17T08:32:08;2.00;;;1.27;;
4638;SDS011;2332;38.646;-9.154;2023-08-17T08:34:33;3.80;;;1.73;;
4638;SDS011;2332;38.646;-9.154;2023-08-17T08:36:59;5.80;;;1.53;;
4638;SDS011;2332;38.646;-9.154;2023-08-17T08:39:27;6.30;;;1.53;;
4638;SDS011;2332;38.646;-9.154;2023-08-17T08:41:53;7.70;;;2.00;;
4638;SDS011;2332;38.646;-9.154;2023-08-17T08:44:18;5.57;;;1.70;;
4638;SDS011;2332;38.646;-9.154;2023-08-17T08:46:44;1.63;;;1.03;;
4638;SDS011;2332;38.646;-9.154;2023-08-17T08:49:10;3.33;;;1.50;;
4638;SDS011;2332;38.646;-9.154;2023-08-17T08:51:35;7.43;;;1.67;;
4638;SDS011;2332;38.646;-9.154;2023-08-17T08:54:03;4.23;;;1.80;;
4638;SDS011;2332;38.646;-9.154;2023-08-17T08:56:32;5.23;;;2.00;;
4638;SDS011;2332;38.646;-9.154;2023-08-17T08:58:58;2.20;;;1.60;;
4638;SDS011;2332;38.646;-9.154;2023-08-17T09:01:26;1.63;;;1.20;;
4638;SDS011;2332;38.646;-9.154;2023-08-17T09:03:51;4.93;;;1.70;;
4638;SDS011;2332;38.646;-9.154;2023-08-17T09:06:18;4.93;;;2.10;;
4638;SDS011;2332;38.646;-9.154;2023-08-17T09:08:43;3.30;;;1.57;;
4638;SDS011;2332;38.646;-9.154;2023-08-17T09:11:09;7.50;;;1.47;;
4638;SDS011;2332;38.646;-9.154;2023-08-17T09:13:34;2.23;;;1.67;;
4638;SDS011;2332;38.646;-9.154;2023-08-17T09:16:00;2.47;;;1.33;;
4638;SDS011;2332;38.646;-9.154;2023-08-17T09:18:26;1.93;;;1.40;;
4638;SDS011;2332;38.646;-9.154;2023-08-17T09:20:51;4.57;;;1.93;;
4638;SDS011;2332;38.646;-9.154;2023-08-17T09:23:20;2.53;;;1.73;;
4638;SDS011;2332;38.646;-9.154;2023-08-17T09:25:46;2.40;;;1.40;;
4638;SDS011;2332;38.646;-9.154;2023-08-17T09:28:13;3.40;;;2.43;;
4638;SDS011;2332;38.646;-9.154;2023-08-17T09:30:52;3.00;;;2.03;;
4638;SDS011;2332;38.646;-9.154;2023-08-17T09:33:21;4.70;;;2.10;;
4638;SDS011;2332;38.646;-9.154;2023-08-17T09:35:47;3.03;;;1.73;;
4638;SDS011;2332;38.646;-9.154;2023-08-17T09:38:12;2.40;;;2.00;;
4638;SDS011;2332;38.646;-9.154;2023-08-17T09:40:41;3.50;;;1.80;;
4638;SDS011;2332;38.646;-9.154;2023-08-17T09:43:08;4.20;;;1.40;;
4638;SDS011;2332;38.646;-9.154;2023-08-17T09:45:33;1.60;;;1.40;;
4638;SDS011;2332;38.646;-9.154;2023-08-17T09:47:59;4.10;;;1.60;;
4638;SDS011;2332;38.646;-9.154;2023-08-17T09:50:25;3.03;;;1.30;;
4638;SDS011;2332;38.646;-9.154;2023-08-17T09:52:53;2.90;;;1.30;;
4638;SDS011;2332;38.646;-9.154;2023-08-17T09:55:22;2.53;;;1.63;;
4638;SDS011;2332;38.646;-9.154;2023-08-17T09:57:48;2.00;;;1.47;;
4638;SDS011;2332;38.646;-9.154;2023-08-17T10:00:14;4.87;;;1.77;;
4638;SDS011;2332;38.646;-9.154;2023-08-17T10:02:39;8.30;;;1.50;;
4638;SDS011;2332;38.646;-9.154;2023-08-17T10:05:05;4.20;;;1.40;;
4638;SDS011;2332;38.646;-9.154;2023-08-17T10:07:33;4.40;;;1.47;;
4638;SDS011;2332;38.646;-9.154;2023-08-17T10:10:02;4.23;;;1.57;;
4638;SDS011;2332;38.646;-9.154;2023-08-17T10:12:28;1.67;;;1.57;;
4638;SDS011;2332;38.646;-9.154;2023-08-17T10:15:02;5.20;;;1.80;;
4638;SDS011;2332;38.646;-9.154;2023-08-17T10:17:30;1.90;;;1.57;;
4638;SDS011;2332;38.646;-9.154;2023-08-17T10:19:59;2.47;;;1.60;;
4638;SDS011;2332;38.646;-9.154;2023-08-17T10:24:54;7.37;;;1.87;;
4638;SDS011;2332;38.646;-9.154;2023-08-17T10:27:20;3.40;;;1.37;;
4638;SDS011;2332;38.646;-9.154;2023-08-17T10:29:46;4.07;;;2.03;;
4638;SDS011;2332;38.646;-9.154;2023-08-17T10:32:12;4.13;;;1.60;;
4638;SDS011;2332;38.646;-9.154;2023-08-17T10:34:37;5.30;;;1.80;;
4638;SDS011;2332;38.646;-9.154;2023-08-17T10:37:03;2.50;;;1.40;;
4638;SDS011;2332;38.646;-9.154;2023-08-17T10:39:29;5.37;;;1.47;;
4638;SDS011;2332;38.646;-9.154;2023-08-17T10:41:55;4.87;;;1.60;;
4638;SDS011;2332;38.646;-9.154;2023-08-17T10:47:24;4.77;;;1.90;;
4638;SDS011;2332;38.646;-9.154;2023-08-17T10:49:51;2.90;;;1.67;;
4638;SDS011;2332;38.646;-9.154;2023-08-17T10:52:24;3.73;;;1.70;;
4638;SDS011;2332;38.646;-9.154;2023-08-17T10:54:50;5.53;;;1.50;;
4638;SDS011;2332;38.646;-9.154;2023-08-17T10:57:25;4.03;;;1.60;;
4638;SDS011;2332;38.646;-9.154;2023-08-17T11:00:33;8.50;;;2.00;;
4638;SDS011;2332;38.646;-9.154;2023-08-17T11:02:39;5.03;;;2.00;;
4638;SDS011;2332;38.646;-9.154;2023-08-17T11:05:05;4.57;;;1.67;;
4638;SDS011;2332;38.646;-9.154;2023-08-17T11:07:43;3.13;;;1.20;;
4638;SDS011;2332;38.646;-9.154;2023-08-17T11:12:37;5.03;;;1.60;;
4638;SDS011;2332;38.646;-9.154;2023-08-17T11:15:03;8.13;;;1.70;;
4638;SDS011;2332;38.646;-9.154;2023-08-17T11:17:29;3.00;;;1.57;;
4638;SDS011;2332;38.646;-9.154;2023-08-17T11:19:55;4.90;;;1.70;;
4638;SDS011;2332;38.646;-9.154;2023-08-17T11:22:20;8.10;;;2.10;;
4638;SDS011;2332;38.646;-9.154;2023-08-17T11:24:45;5.67;;;2.30;;
4638;SDS011;2332;38.646;-9.154;2023-08-17T11:27:11;5.47;;;2.07;;
4638;SDS011;2332;38.646;-9.154;2023-08-17T11:29:37;4.93;;;2.27;;
4638;SDS011;2332;38.646;-9.154;2023-08-17T11:32:03;3.47;;;1.73;;
4638;SDS011;2332;38.646;-9.154;2023-08-17T11:34:29;3.90;;;1.70;;
4638;SDS011;2332;38.646;-9.154;2023-08-17T11:36:56;4.70;;;2.27;;
4638;SDS011;2332;38.646;-9.154;2023-08-17T11:39:22;4.83;;;1.17;;
4638;SDS011;2332;38.646;-9.154;2023-08-17T11:41:48;2.60;;;1.80;;
4638;SDS011;2332;38.646;-9.154;2023-08-17T11:44:17;4.00;;;1.50;;
4638;SDS011;2332;38.646;-9.154;2023-08-17T11:46:45;2.57;;;1.50;;
4638;SDS011;2332;38.646;-9.154;2023-08-17T11:49:11;3.50;;;1.80;;
4638;SDS011;2332;38.646;-9.154;2023-08-17T11:51:37;3.00;;;2.23;;
4638;SDS011;2332;38.646;-9.154;2023-08-17T11:54:03;2.20;;;1.90;;
4638;SDS011;2332;38.646;-9.154;2023-08-17T11:56:30;2.80;;;1.53;;
4638;SDS011;2332;38.646;-9.154;2023-08-17T11:58:55;3.53;;;1.63;;
4638;SDS011;2332;38.646;-9.154;2023-08-17T12:01:20;1.37;;;1.27;;
4638;SDS011;2332;38.646;-9.154;2023-08-17T12:03:49;3.90;;;1.40;;
4638;SDS011;2332;38.646;-9.154;2023-08-17T12:06:15;1.93;;;1.37;;
4638;SDS011;2332;38.646;-9.154;2023-08-17T12:08:45;8.90;;;1.63;;
4638;SDS011;2332;38.646;-9.154;2023-08-17T12:11:11;1.80;;;1.70;;
4638;SDS011;2332;38.646;-9.154;2023-08-17T12:13:36;1.60;;;1.50;;
4638;SDS011;2332;38.646;-9.154;2023-08-17T12:16:02;4.83;;;1.80;;
4638;SDS011;2332;38.646;-9.154;2023-08-17T12:18:28;3.47;;;1.83;;
4638;SDS011;2332;38.646;-9.154;2023-08-17T12:20:54;4.67;;;1.60;;
4638;SDS011;2332;38.646;-9.154;2023-08-17T12:23:19;4.37;;;1.53;;
4638;SDS011;2332;38.646;-9.154;2023-08-17T12:25:45;6.13;;;1.70;;
4638;SDS011;2332;38.646;-9.154;2023-08-17T12:28:13;2.70;;;1.43;;
4638;SDS011;2332;38.646;-9.154;2023-08-17T12:30:39;4.07;;;1.50;;
4638;SDS011;2332;38.646;-9.154;2023-08-17T12:33:04;4.53;;;1.77;;
4638;SDS011;2332;38.646;-9.154;2023-08-17T12:35:30;2.50;;;1.33;;
4638;SDS011;2332;38.646;-9.154;2023-08-17T12:37:56;1.70;;;1.60;;
4638;SDS011;2332;38.646;-9.154;2023-08-17T12:40:21;1.90;;;1.60;;
4638;SDS011;2332;38.646;-9.154;2023-08-17T12:42:47;3.43;;;1.27;;
4638;SDS011;2332;38.646;-9.154;2023-08-17T12:45:13;1.70;;;1.60;;
4638;SDS011;2332;38.646;-9.154;2023-08-17T12:47:38;3.80;;;1.70;;
4638;SDS011;2332;38.646;-9.154;2023-08-17T12:50:04;2.70;;;2.10;;
4638;SDS011;2332;38.646;-9.154;2023-08-17T12:52:29;3.03;;;1.70;;
4638;SDS011;2332;38.646;-9.154;2023-08-17T12:54:55;2.00;;;1.33;;
4638;SDS011;2332;38.646;-9.154;2023-08-17T12:57:20;6.07;;;1.87;;
4638;SDS011;2332;38.646;-9.154;2023-08-17T12:59:46;2.60;;;1.80;;
4638;SDS011;2332;38.646;-9.154;2023-08-17T13:02:11;2.77;;;1.27;;
4638;SDS011;2332;38.646;-9.154;2023-08-17T13:04:36;2.30;;;1.50;;
4638;SDS011;2332;38.646;-9.154;2023-08-17T13:07:02;8.77;;;1.73;;
4638;SDS011;2332;38.646;-9.154;2023-08-17T13:09:27;2.17;;;1.40;;
4638;SDS011;2332;38.646;-9.154;2023-08-17T13:11:53;3.23;;;2.13;;
4638;SDS011;2332;38.646;-9.154;2023-08-17T13:14:19;5.23;;;1.30;;
4638;SDS011;2332;38.646;-9.154;2023-08-17T13:16:44;4.87;;;1.43;;
4638;SDS011;2332;38.646;-9.154;2023-08-17T13:19:09;2.20;;;1.50;;
4638;SDS011;2332;38.646;-9.154;2023-08-17T13:21:35;10.40;;;1.87;;
4638;SDS011;2332;38.646;-9.154;2023-08-17T13:24:00;2.93;;;2.13;;
4638;SDS011;2332;38.646;-9.154;2023-08-17T13:26:28;1.90;;;1.73;;
4638;SDS011;2332;38.646;-9.154;2023-08-17T13:28:54;2.17;;;1.97;;
4638;SDS011;2332;38.646;-9.154;2023-08-17T13:31:19;2.10;;;1.73;;
4638;SDS011;2332;38.646;-9.154;2023-08-17T13:33:44;2.07;;;1.90;;
4638;SDS011;2332;38.646;-9.154;2023-08-17T13:36:10;6.00;;;2.70;;
4638;SDS011;2332;38.646;-9.154;2023-08-17T13:38:35;2.40;;;1.83;;
4638;SDS011;2332;38.646;-9.154;2023-08-17T13:41:02;2.23;;;2.07;;
4638;SDS011;2332;38.646;-9.154;2023-08-17T13:43:27;3.63;;;1.60;;
4638;SDS011;2332;38.646;-9.154;2023-08-17T13:45:56;2.80;;;2.43;;
4638;SDS011;2332;38.646;-9.154;2023-08-17T13:48:21;1.97;;;1.60;;
4638;SDS011;2332;38.646;-9.154;2023-08-17T13:50:46;3.43;;;2.20;;
4638;SDS011;2332;38.646;-9.154;2023-08-17T13:53:12;1.90;;;1.80;;
4638;SDS011;2332;38.646;-9.154;2023-08-17T13:55:37;3.90;;;1.70;;
4638;SDS011;2332;38.646;-9.154;2023-08-17T13:58:03;1.70;;;1.60;;
4638;SDS011;2332;38.646;-9.154;2023-08-17T14:00:29;7.30;;;1.63;;
4638;SDS011;2332;38.646;-9.154;2023-08-17T14:02:54;3.40;;;2.53;;
4638;SDS011;2332;38.646;-9.154;2023-08-17T14:05:20;2.00;;;1.50;;
4638;SDS011;2332;38.646;-9.154;2023-08-17T14:07:45;3.37;;;2.07;;
4638;SDS011;2332;38.646;-9.154;2023-08-17T14:10:11;1.90;;;1.80;;
4638;SDS011;2332;38.646;-9.154;2023-08-17T14:12:36;1.83;;;1.73;;
4638;SDS011;2332;38.646;-9.154;2023-08-17T14:15:02;2.27;;;2.07;;
4638;SDS011;2332;38.646;-9.154;2023-08-17T14:17:27;2.27;;;2.10;;
4638;SDS011;2332;38.646;-9.154;2023-08-17T14:19:53;2.10;;;1.57;;
4638;SDS011;2332;38.646;-9.154;2023-08-17T14:22:19;4.30;;;2.27;;
4638;SDS011;2332;38.646;-9.154;2023-08-17T14:24:45;3.80;;;1.77;;
4638;SDS011;2332;38.646;-9.154;2023-08-17T14:27:10;2.60;;;2.03;;
4638;SDS011;2332;38.646;-9.154;2023-08-17T14:29:36;5.53;;;2.33;;
4638;SDS011;2332;38.646;-9.154;2023-08-17T14:32:01;3.37;;;1.93;;
4638;SDS011;2332;38.646;-9.154;2023-08-17T14:34:26;4.97;;;2.00;;
4638;SDS011;2332;38.646;-9.154;2023-08-17T14:36:52;2.13;;;2.03;;
4638;SDS011;2332;38.646;-9.154;2023-08-17T14:39:17;1.90;;;1.80;;
4638;SDS011;2332;38.646;-9.154;2023-08-17T14:41:42;2.07;;;1.90;;
4638;SDS011;2332;38.646;-9.154;2023-08-17T14:44:08;6.87;;;1.97;;
4638;SDS011;2332;38.646;-9.154;2023-08-17T14:46:33;3.13;;;2.27;;
4638;SDS011;2332;38.646;-9.154;2023-08-17T14:49:00;2.27;;;2.17;;
4638;SDS011;2332;38.646;-9.154;2023-08-17T14:51:25;2.47;;;2.30;;
4638;SDS011;2332;38.646;-9.154;2023-08-17T14:53:50;1.90;;;1.77;;
4638;SDS011;2332;38.646;-9.154;2023-08-17T14:56:16;2.27;;;2.17;;
4638;SDS011;2332;38.646;-9.154;2023-08-17T14:58:41;2.20;;;2.00;;
4638;SDS011;2332;38.646;-9.154;2023-08-17T15:01:09;2.43;;;2.23;;
4638;SDS011;2332;38.646;-9.154;2023-08-17T15:03:35;3.57;;;1.90;;